Time;durP1;ratioP1;P1;durP2;ratioP2;P2;SDS_P1;SDS_P2;PMS_P1;PMS_P2;Temp;Humidity;BMP_temperature;BMP_pressure;BME280_temperature;BME280_humidity;BME280_pressure;Samples;Min_cycle;Max_cycle;Signal;HPM_P1;HPM_P2
2021/10/06 00:00:28;;;;;;;0.73;0.73;;;13.30;99.90;;;;;;5032784;28;20033;-76
2021/10/06 00:02:53;;;;;;;0.43;0.43;;;13.30;99.90;;;;;;5037388;28;20031;-76
2021/10/06 00:05:19;;;;;;;0.63;0.63;;;13.40;99.90;;;;;;5043704;28;20033;-76
2021/10/06 00:07:44;;;;;;;0.85;0.85;;;13.30;99.90;;;;;;5036303;28;20035;-76
2021/10/06 00:10:10;;;;;;;0.90;0.70;;;13.40;99.90;;;;;;5035047;28;20361;-76
2021/10/06 00:12:36;;;;;;;0.50;0.50;;;13.40;99.90;;;;;;5031761;28;20646;-76
2021/10/06 00:15:04;;;;;;;1.55;0.98;;;13.40;99.90;;;;;;5035019;28;20048;-76
2021/10/06 00:17:30;;;;;;;0.85;0.85;;;13.40;99.90;;;;;;5043147;28;20029;-76
2021/10/06 00:19:56;;;;;;;1.65;0.45;;;13.40;99.90;;;;;;5028738;28;20060;-76
2021/10/06 00:22:21;;;;;;;2.40;0.70;;;13.40;99.90;;;;;;5037973;28;20355;-76
2021/10/06 00:24:47;;;;;;;0.45;0.45;;;13.40;99.90;;;;;;5034529;28;20021;-76
2021/10/06 00:27:12;;;;;;;0.10;0.10;;;13.50;99.90;;;;;;5033349;28;20029;-76
2021/10/06 00:29:38;;;;;;;0.50;0.50;;;13.40;99.90;;;;;;5033325;28;20086;-76
2021/10/06 00:32:04;;;;;;;0.38;0.38;;;13.40;99.90;;;;;;5032964;28;20382;-76
2021/10/06 00:34:29;;;;;;;0.40;0.40;;;13.40;99.90;;;;;;5031961;28;20033;-76
2021/10/06 00:36:55;;;;;;;0.45;0.45;;;13.30;99.90;;;;;;5029267;28;20037;-76
2021/10/06 00:39:20;;;;;;;0.65;0.65;;;13.30;99.90;;;;;;5028345;28;20499;-76
2021/10/06 00:41:46;;;;;;;1.08;0.85;;;13.30;99.90;;;;;;5031332;28;20035;-76
2021/10/06 00:44:19;;;;;;;0.93;0.38;;;13.20;99.90;;;;;;5037936;28;20061;-76
2021/10/06 00:46:45;;;;;;;1.77;0.43;;;13.20;99.90;;;;;;5041964;28;20036;-76
2021/10/06 00:49:13;;;;;;;0.28;0.22;;;13.10;99.90;;;;;;5040694;28;20162;-76
2021/10/06 00:51:39;;;;;;;1.00;0.98;;;13.20;99.90;;;;;;5033794;28;20234;-76
2021/10/06 00:54:05;;;;;;;1.40;1.30;;;13.10;99.90;;;;;;5043572;28;20107;-76
2021/10/06 00:56:31;;;;;;;0.80;0.25;;;13.10;99.90;;;;;;5034193;28;20164;-76
2021/10/06 00:58:56;;;;;;;0.10;0.10;;;13.00;99.90;;;;;;5030357;28;20029;-76
2021/10/06 01:01:22;;;;;;;0.43;0.43;;;13.00;99.90;;;;;;5030270;28;20489;-76
2021/10/06 01:03:47;;;;;;;0.82;0.43;;;13.10;99.90;;;;;;5031824;28;20033;-76
2021/10/06 01:06:13;;;;;;;1.15;1.05;;;13.00;99.90;;;;;;5033684;28;20384;-76
2021/10/06 01:08:38;;;;;;;0.03;0.03;;;13.00;99.90;;;;;;5030021;28;20009;-76
2021/10/06 01:11:04;;;;;;;0.43;0.43;;;12.90;99.90;;;;;;5037819;28;20057;-76
2021/10/06 01:13:29;;;;;;;1.30;1.20;;;12.90;99.90;;;;;;5041383;28;20040;-76
2021/10/06 01:15:56;;;;;;;0.60;0.60;;;12.80;99.90;;;;;;5045178;28;20043;-76
2021/10/06 01:18:22;;;;;;;0.95;0.50;;;12.80;99.90;;;;;;5042233;28;20649;-76
2021/10/06 01:20:47;;;;;;;0.13;0.13;;;12.80;99.90;;;;;;5043560;28;20120;-76
2021/10/06 01:23:14;;;;;;;0.30;0.30;;;12.80;99.90;;;;;;5032371;28;20017;-76
2021/10/06 01:25:40;;;;;;;0.10;0.10;;;12.70;99.90;;;;;;5039265;28;20079;-76
2021/10/06 01:28:05;;;;;;;0.43;0.30;;;12.80;99.90;;;;;;5042042;28;20025;-75
2021/10/06 01:30:31;;;;;;;0.13;0.13;;;12.80;99.90;;;;;;5038342;28;20059;-76
2021/10/06 01:32:56;;;;;;;0.93;0.68;;;12.80;99.90;;;;;;5039942;28;20060;-76
2021/10/06 01:35:22;;;;;;;0.30;0.30;;;12.90;99.90;;;;;;5034980;28;20055;-76
2021/10/06 01:37:48;;;;;;;0.38;0.38;;;12.90;99.90;;;;;;5032388;28;20028;-75
2021/10/06 01:40:17;;;;;;;11.27;1.55;;;13.00;99.90;;;;;;5031552;28;20029;-76
2021/10/06 01:42:44;;;;;;;1.60;0.93;;;13.00;99.90;;;;;;5034942;28;20627;-75
2021/10/06 01:45:36;;;;;;;0.77;0.77;;;13.00;99.90;;;;;;5041574;28;20036;-75
2021/10/06 01:48:10;;;;;;;0.28;0.28;;;13.10;99.90;;;;;;5039778;28;20063;-76
2021/10/06 01:50:41;;;;;;;0.55;0.20;;;13.10;99.90;;;;;;5038146;28;20017;-75
2021/10/06 01:53:08;;;;;;;0.95;0.88;;;13.10;99.90;;;;;;5038141;28;20076;-76
2021/10/06 01:55:33;;;;;;;1.13;0.32;;;13.10;99.90;;;;;;5035951;28;20033;-76
2021/10/06 01:58:02;;;;;;;0.45;0.43;;;13.20;99.90;;;;;;5036709;28;20049;-75
2021/10/06 02:00:28;;;;;;;0.20;0.20;;;13.20;99.90;;;;;;5035642;28;20059;-71
2021/10/06 02:02:55;;;;;;;0.10;0.10;;;13.30;99.90;;;;;;5038225;28;20491;-70
2021/10/06 02:05:21;;;;;;;0.80;0.63;;;13.30;99.90;;;;;;5034365;28;20029;-71
2021/10/06 02:07:47;;;;;;;0.00;0.00;;;13.30;99.90;;;;;;5036017;28;20057;-70
2021/10/06 02:10:12;;;;;;;0.70;0.15;;;13.30;99.90;;;;;;5031611;28;20095;-70
2021/10/06 02:12:38;;;;;;;0.95;0.43;;;13.40;99.90;;;;;;5032644;28;20044;-70
2021/10/06 02:15:05;;;;;;;1.02;0.20;;;13.40;99.90;;;;;;5034781;28;20033;-71
2021/10/06 02:17:31;;;;;;;0.85;0.77;;;13.40;99.90;;;;;;5039378;28;20029;-71
2021/10/06 02:19:56;;;;;;;0.20;0.20;;;13.40;99.90;;;;;;5040989;28;20052;-71
2021/10/06 02:22:22;;;;;;;0.55;0.47;;;13.40;99.90;;;;;;5030436;28;20625;-71
2021/10/06 02:24:47;;;;;;;0.32;0.20;;;13.40;99.90;;;;;;5038232;28;20025;-71
2021/10/06 02:27:13;;;;;;;0.52;0.52;;;13.40;99.90;;;;;;5031587;28;20480;-71
2021/10/06 02:29:38;;;;;;;0.20;0.20;;;13.50;99.90;;;;;;5038244;28;20044;-71
2021/10/06 02:32:04;;;;;;;0.30;0.30;;;13.50;99.90;;;;;;5033951;28;20113;-71
2021/10/06 02:34:29;;;;;;;0.47;0.45;;;13.50;99.90;;;;;;5030728;28;20041;-71
2021/10/06 02:36:55;;;;;;;0.43;0.43;;;13.50;99.90;;;;;;5043182;28;20033;-71
2021/10/06 02:39:20;;;;;;;0.47;0.47;;;13.60;99.90;;;;;;5032816;28;20036;-71
2021/10/06 02:41:46;;;;;;;0.30;0.30;;;13.60;99.90;;;;;;5030184;28;20113;-71
2021/10/06 02:44:12;;;;;;;0.60;0.50;;;13.60;99.90;;;;;;5033080;28;20164;-71
2021/10/06 02:46:38;;;;;;;0.43;0.43;;;13.60;99.90;;;;;;5031559;28;20021;-71
2021/10/06 02:49:03;;;;;;;0.32;0.32;;;13.60;99.90;;;;;;5043923;28;20122;-70
2021/10/06 02:51:29;;;;;;;0.28;0.28;;;13.60;99.90;;;;;;5034653;28;20037;-71
2021/10/06 02:53:54;;;;;;;1.00;0.40;;;13.60;99.90;;;;;;5036218;28;20033;-71
2021/10/06 02:56:20;;;;;;;0.50;0.40;;;13.70;99.90;;;;;;5037314;28;20050;-71
2021/10/06 02:58:45;;;;;;;1.05;0.60;;;13.60;99.90;;;;;;5044524;28;20060;-71
2021/10/06 03:01:11;;;;;;;0.63;0.63;;;13.60;99.90;;;;;;5033792;28;20471;-71
2021/10/06 03:03:36;;;;;;;0.43;0.43;;;13.60;99.90;;;;;;5038567;28;20103;-71
2021/10/06 03:06:03;;;;;;;0.20;0.20;;;13.60;99.90;;;;;;5037442;28;20187;-71
2021/10/06 03:08:28;;;;;;;0.43;0.25;;;13.60;99.90;;;;;;5037719;28;20032;-71
2021/10/06 03:10:54;;;;;;;0.73;0.55;;;13.70;99.90;;;;;;5033106;28;20029;-71
2021/10/06 03:13:19;;;;;;;1.27;0.77;;;13.70;99.90;;;;;;5045023;28;20066;-71
2021/10/06 03:15:45;;;;;;;0.20;0.20;;;13.70;99.90;;;;;;5030167;28;20067;-71
2021/10/06 03:18:11;;;;;;;0.15;0.13;;;13.70;99.90;;;;;;5039592;28;20029;-71
2021/10/06 03:20:37;;;;;;;0.25;0.25;;;13.70;99.90;;;;;;5038619;28;20053;-71
2021/10/06 03:23:04;;;;;;;0.70;0.65;;;13.70;99.90;;;;;;5040969;28;20037;-71
2021/10/06 03:25:30;;;;;;;0.10;0.10;;;13.70;99.90;;;;;;5030078;28;20060;-71
2021/10/06 03:27:55;;;;;;;0.38;0.38;;;13.70;99.90;;;;;;5031014;28;20072;-71
2021/10/06 03:30:21;;;;;;;0.10;0.10;;;13.70;99.90;;;;;;5031779;28;20496;-71
2021/10/06 03:32:46;;;;;;;0.20;0.20;;;13.60;99.90;;;;;;5040700;28;20047;-71
2021/10/06 03:35:12;;;;;;;1.25;0.50;;;13.70;99.90;;;;;;5035868;28;20025;-71
2021/10/06 03:37:37;;;;;;;0.28;0.28;;;13.60;99.90;;;;;;5030914;28;20053;-71
2021/10/06 03:40:06;;;;;;;0.22;0.22;;;13.70;99.90;;;;;;5029527;28;20100;-71
2021/10/06 03:42:31;;;;;;;0.68;0.68;;;13.70;99.90;;;;;;5034737;28;20025;-71
2021/10/06 03:44:57;;;;;;;0.22;0.15;;;13.70;99.90;;;;;;5036415;28;20116;-71
2021/10/06 03:47:23;;;;;;;0.10;0.10;;;13.60;99.90;;;;;;5041051;28;20365;-71
2021/10/06 03:49:48;;;;;;;0.30;0.10;;;13.70;99.90;;;;;;5030769;28;20033;-71
2021/10/06 03:52:14;;;;;;;1.27;1.05;;;13.70;99.90;;;;;;5032613;28;20371;-70
2021/10/06 03:54:39;;;;;;;0.65;0.60;;;13.70;99.90;;;;;;5032532;28;20025;-71
2021/10/06 03:57:04;;;;;;;0.47;0.43;;;13.60;99.90;;;;;;5031251;28;20025;-71
2021/10/06 03:59:30;;;;;;;0.93;0.93;;;13.70;99.90;;;;;;5030615;28;20361;-71
2021/10/06 04:01:55;;;;;;;0.47;0.47;;;13.60;99.90;;;;;;5037226;28;20175;-71
2021/10/06 04:04:21;;;;;;;0.35;0.35;;;13.60;99.90;;;;;;5038274;28;20029;-71
2021/10/06 04:06:46;;;;;;;0.50;0.50;;;13.60;99.90;;;;;;5035136;28;20045;-71
2021/10/06 04:09:12;;;;;;;0.75;0.50;;;13.70;99.90;;;;;;5036362;28;20135;-71
2021/10/06 04:11:37;;;;;;;1.02;0.47;;;13.60;99.90;;;;;;5040033;28;20255;-70
2021/10/06 04:14:03;;;;;;;0.80;0.50;;;13.60;99.90;;;;;;5037846;28;20116;-69
2021/10/06 04:16:28;;;;;;;0.10;0.10;;;13.70;99.90;;;;;;5036356;28;20017;-70
2021/10/06 04:18:54;;;;;;;1.35;1.02;;;13.60;99.90;;;;;;5037761;28;20751;-70
2021/10/06 04:21:20;;;;;;;1.02;0.68;;;13.60;99.90;;;;;;5031944;28;20037;-70
2021/10/06 04:23:46;;;;;;;0.82;0.82;;;13.60;99.90;;;;;;5034770;28;20057;-70
2021/10/06 04:26:11;;;;;;;0.25;0.13;;;13.70;99.90;;;;;;5035042;28;20083;-70
2021/10/06 04:28:37;;;;;;;0.57;0.47;;;13.60;99.90;;;;;;5042331;28;20021;-70
2021/10/06 04:31:02;;;;;;;0.30;0.30;;;13.70;99.90;;;;;;5035924;28;20071;-69
2021/10/06 04:33:28;;;;;;;0.20;0.20;;;13.70;99.90;;;;;;5031463;28;20476;-69
2021/10/06 04:35:54;;;;;;;1.17;1.08;;;13.70;99.90;;;;;;5035320;28;20036;-70
2021/10/06 04:38:19;;;;;;;0.40;0.40;;;13.70;99.90;;;;;;5028454;28;20037;-69
2021/10/06 04:40:45;;;;;;;0.52;0.52;;;13.70;99.90;;;;;;5041152;28;20484;-70
2021/10/06 04:43:11;;;;;;;0.43;0.43;;;13.70;99.90;;;;;;5029588;28;20045;-70
2021/10/06 04:45:38;;;;;;;1.13;0.75;;;13.70;99.90;;;;;;5034129;28;20369;-70
2021/10/06 04:48:04;;;;;;;0.47;0.45;;;13.60;99.90;;;;;;5037210;28;20464;-75
2021/10/06 04:50:30;;;;;;;0.30;0.30;;;13.60;99.90;;;;;;5036359;28;20041;-75
2021/10/06 04:52:56;;;;;;;0.38;0.38;;;13.60;99.90;;;;;;5037877;28;20048;-75
2021/10/06 04:55:22;;;;;;;0.20;0.20;;;13.60;99.90;;;;;;5034430;28;20033;-71
2021/10/06 04:57:47;;;;;;;0.77;0.63;;;13.70;99.90;;;;;;5030990;28;20025;-72
2021/10/06 05:00:13;;;;;;;1.00;0.90;;;13.60;99.90;;;;;;5039821;28;20021;-71
2021/10/06 05:02:38;;;;;;;0.55;0.55;;;13.70;99.90;;;;;;5034715;28;20438;-71
2021/10/06 05:05:04;;;;;;;0.45;0.45;;;13.70;99.90;;;;;;5033962;28;20039;-70
2021/10/06 05:07:30;;;;;;;0.32;0.32;;;13.70;99.90;;;;;;5039977;28;20021;-71
2021/10/06 05:09:55;;;;;;;0.70;0.70;;;13.60;99.90;;;;;;5038486;28;20032;-70
2021/10/06 05:12:21;;;;;;;1.13;1.02;;;13.60;99.90;;;;;;5040417;28;20464;-70
2021/10/06 05:14:46;;;;;;;0.85;0.38;;;13.60;99.90;;;;;;5029453;28;20060;-70
2021/10/06 05:17:12;;;;;;;0.30;0.30;;;13.60;99.90;;;;;;5033789;28;20083;-70
2021/10/06 05:19:37;;;;;;;0.40;0.40;;;13.60;99.90;;;;;;5029171;28;20461;-70
2021/10/06 05:22:03;;;;;;;0.82;0.80;;;13.60;99.90;;;;;;5029584;28;20026;-71
2021/10/06 05:24:28;;;;;;;0.73;0.73;;;13.50;99.90;;;;;;5035942;28;20029;-72
2021/10/06 05:26:54;;;;;;;0.32;0.32;;;13.50;99.90;;;;;;5028561;28;20056;-73
2021/10/06 05:29:21;;;;;;;1.60;0.28;;;13.50;99.90;;;;;;5032161;28;20029;-70
2021/10/06 05:31:47;;;;;;;0.50;0.50;;;13.50;99.90;;;;;;5038826;28;20037;-69
2021/10/06 05:34:14;;;;;;;0.63;0.35;;;13.40;99.90;;;;;;5032552;28;20496;-70
2021/10/06 05:36:39;;;;;;;0.88;0.47;;;13.40;99.90;;;;;;5035551;28;20056;-70
2021/10/06 05:39:05;;;;;;;0.40;0.40;;;13.30;99.90;;;;;;5033756;28;20472;-70
2021/10/06 05:41:30;;;;;;;0.65;0.40;;;13.30;99.90;;;;;;5038755;28;20057;-70
2021/10/06 05:44:11;;;;;;;0.30;0.30;;;13.30;99.90;;;;;;5034755;28;20076;-71
2021/10/06 05:46:37;;;;;;;0.10;0.10;;;13.20;99.90;;;;;;5038286;28;20032;-72
2021/10/06 05:49:02;;;;;;;0.32;0.32;;;13.20;99.90;;;;;;5040832;28;20041;-72
2021/10/06 05:51:27;;;;;;;1.27;0.43;;;13.20;99.90;;;;;;5040496;28;20509;-72
2021/10/06 05:53:53;;;;;;;0.30;0.30;;;13.20;99.90;;;;;;5045379;28;20055;-72
2021/10/06 05:56:19;;;;;;;0.22;0.22;;;13.10;99.90;;;;;;5044947;28;20033;-72
2021/10/06 05:58:44;;;;;;;1.10;1.00;;;13.10;99.90;;;;;;5046550;28;20112;-71
2021/10/06 06:01:09;;;;;;;0.50;0.50;;;13.10;99.90;;;;;;5034949;28;20112;-71
2021/10/06 06:03:35;;;;;;;0.70;0.70;;;13.10;99.90;;;;;;5045393;28;20040;-73
2021/10/06 06:06:00;;;;;;;0.10;0.10;;;13.10;99.90;;;;;;5038555;28;20017;-72
2021/10/06 06:08:26;;;;;;;1.08;0.52;;;13.10;99.90;;;;;;5034977;28;20079;-74
2021/10/06 06:10:51;;;;;;;0.75;0.38;;;13.10;99.90;;;;;;5050532;28;20024;-72
2021/10/06 06:13:17;;;;;;;0.43;0.43;;;13.10;99.90;;;;;;5036254;28;20091;-72
2021/10/06 06:15:43;;;;;;;0.25;0.25;;;13.10;99.90;;;;;;5042721;28;20040;-71
2021/10/06 06:18:08;;;;;;;0.20;0.20;;;13.10;99.90;;;;;;5041312;28;20053;-72
2021/10/06 06:20:33;;;;;;;0.20;0.20;;;13.10;99.90;;;;;;5038234;28;20049;-71
2021/10/06 06:23:36;;;;;;;0.52;0.43;;;13.10;99.90;;;;;;5037404;28;20717;-72
2021/10/06 06:26:01;;;;;;;0.52;0.43;;;13.20;99.90;;;;;;5037511;28;20033;-72
2021/10/06 06:28:27;;;;;;;10.88;2.05;;;13.20;99.90;;;;;;5027495;28;20044;-72
2021/10/06 06:30:53;;;;;;;6.68;1.95;;;13.20;99.90;;;;;;5033095;28;20158;-72
2021/10/06 06:33:19;;;;;;;2.00;0.52;;;13.20;99.90;;;;;;5044698;28;20547;-72
2021/10/06 06:35:44;;;;;;;0.32;0.32;;;13.20;99.90;;;;;;5038706;28;20053;-73
2021/10/06 06:38:11;;;;;;;0.25;0.25;;;13.20;99.90;;;;;;5034979;28;20494;-72
2021/10/06 06:40:40;;;;;;;0.63;0.63;;;13.20;99.90;;;;;;5028302;28;20040;-72
2021/10/06 06:43:06;;;;;;;0.00;0.00;;;13.30;99.90;;;;;;5044541;28;20166;-72
2021/10/06 06:45:32;;;;;;;0.10;0.10;;;13.30;99.90;;;;;;5043514;28;20056;-73
2021/10/06 06:47:57;;;;;;;0.22;0.22;;;13.30;99.90;;;;;;5045656;28;20464;-73
2021/10/06 06:50:23;;;;;;;0.50;0.50;;;13.30;99.90;;;;;;5040618;28;20025;-71
2021/10/06 06:52:48;;;;;;;0.63;0.47;;;13.30;99.90;;;;;;5040098;28;20110;-72
2021/10/06 06:55:14;;;;;;;0.40;0.40;;;13.30;99.90;;;;;;5041310;28;20031;-72
2021/10/06 06:57:40;;;;;;;0.28;0.20;;;13.30;99.90;;;;;;5037102;28;21933;-73
2021/10/06 07:00:06;;;;;;;0.45;0.40;;;13.30;99.90;;;;;;5030942;28;20042;-72
2021/10/06 07:02:31;;;;;;;0.00;0.00;;;13.30;99.90;;;;;;5029466;28;20029;-72
2021/10/06 07:04:57;;;;;;;0.40;0.30;;;13.30;99.90;;;;;;5042443;28;20111;-72
2021/10/06 07:07:22;;;;;;;1.13;0.50;;;13.40;99.90;;;;;;5039840;28;20632;-72
2021/10/06 07:09:49;;;;;;;0.32;0.32;;;13.40;99.90;;;;;;5032755;28;20040;-72
2021/10/06 07:12:16;;;;;;;0.35;0.28;;;13.40;99.90;;;;;;5037370;28;20036;-73
2021/10/06 07:14:41;;;;;;;0.10;0.10;;;13.40;99.90;;;;;;5041778;28;20542;-73
2021/10/06 07:17:07;;;;;;;0.10;0.10;;;13.40;99.90;;;;;;5030823;28;20041;-72
2021/10/06 07:19:33;;;;;;;0.30;0.30;;;13.40;99.90;;;;;;5039923;28;20049;-72
2021/10/06 07:21:58;;;;;;;0.00;0.00;;;13.50;99.90;;;;;;5045076;28;20436;-73
2021/10/06 07:24:23;;;;;;;0.00;0.00;;;13.50;99.90;;;;;;5037195;28;20027;-69
2021/10/06 07:26:49;;;;;;;0.10;0.10;;;13.50;99.90;;;;;;5030506;28;20025;-72
2021/10/06 07:29:14;;;;;;;0.20;0.20;;;13.50;99.90;;;;;;5037143;28;20435;-73
2021/10/06 07:31:40;;;;;;;0.32;0.32;;;13.60;99.90;;;;;;5040691;28;20120;-71
2021/10/06 07:34:06;;;;;;;0.00;0.00;;;13.60;99.90;;;;;;5025404;28;20152;-71
2021/10/06 07:36:32;;;;;;;0.10;0.10;;;13.60;99.90;;;;;;5030707;28;20052;-71
2021/10/06 07:38:58;;;;;;;0.00;0.00;;;13.60;99.90;;;;;;5042669;28;20025;-70
2021/10/06 07:41:23;;;;;;;0.20;0.20;;;13.70;99.90;;;;;;5038249;28;20087;-70
2021/10/06 07:43:49;;;;;;;0.35;0.35;;;13.70;99.90;;;;;;5028451;28;20443;-72
2021/10/06 07:46:15;;;;;;;0.00;0.00;;;13.70;99.90;;;;;;5036326;28;20025;-71
2021/10/06 07:48:41;;;;;;;0.00;0.00;;;13.80;99.90;;;;;;5033157;28;20392;-71
2021/10/06 07:51:06;;;;;;;0.00;0.00;;;13.80;99.90;;;;;;5028287;28;20029;-71
2021/10/06 07:53:32;;;;;;;17.05;1.05;;;13.80;99.90;;;;;;5031975;28;20094;-70
2021/10/06 07:55:57;;;;;;;0.40;0.40;;;13.80;99.90;;;;;;5039121;28;20035;-70
2021/10/06 07:58:23;;;;;;;0.20;0.20;;;13.90;99.90;;;;;;5037039;28;20088;-71
2021/10/06 08:00:48;;;;;;;0.10;0.10;;;13.90;99.90;;;;;;5033477;28;20053;-70
2021/10/06 08:03:14;;;;;;;0.10;0.10;;;14.00;99.90;;;;;;5037031;28;20026;-71
2021/10/06 08:05:39;;;;;;;0.20;0.20;;;14.00;99.90;;;;;;5033159;28;20025;-71
2021/10/06 08:08:05;;;;;;;0.13;0.13;;;14.00;99.90;;;;;;5039033;28;20033;-69
2021/10/06 08:10:30;;;;;;;0.03;0.03;;;14.10;99.90;;;;;;5036039;28;20021;-70
2021/10/06 08:12:56;;;;;;;0.40;0.32;;;14.10;99.90;;;;;;5032753;28;20428;-70
2021/10/06 08:15:21;;;;;;;0.10;0.10;;;14.10;99.90;;;;;;5041330;28;20484;-71
2021/10/06 08:17:47;;;;;;;0.05;0.05;;;14.20;99.90;;;;;;5038922;28;20036;-70
2021/10/06 08:20:12;;;;;;;0.00;0.00;;;14.20;99.90;;;;;;5031869;28;20042;-70
2021/10/06 08:22:38;;;;;;;0.10;0.10;;;14.20;99.90;;;;;;5036389;28;20029;-70
2021/10/06 08:25:04;;;;;;;0.00;0.00;;;14.30;99.90;;;;;;5027727;28;20021;-71
2021/10/06 08:27:29;;;;;;;0.10;0.10;;;14.30;99.90;;;;;;5041324;28;20492;-71
2021/10/06 08:29:55;;;;;;;0.30;0.30;;;14.30;99.90;;;;;;5032392;28;20530;-70
2021/10/06 08:32:20;;;;;;;0.00;0.00;;;14.40;99.90;;;;;;5026660;28;20423;-71
2021/10/06 08:34:47;;;;;;;0.08;0.08;;;14.40;99.90;;;;;;5025037;28;20060;-70
2021/10/06 08:37:13;;;;;;;0.10;0.10;;;14.50;99.90;;;;;;5033824;28;20086;-71
2021/10/06 08:39:38;;;;;;;0.70;0.57;;;14.50;99.90;;;;;;5031295;28;20116;-71
2021/10/06 08:42:07;;;;;;;0.25;0.25;;;14.50;99.90;;;;;;5027597;28;20024;-70
2021/10/06 08:44:34;;;;;;;0.20;0.20;;;14.60;99.90;;;;;;5032071;28;20059;-70
2021/10/06 08:46:59;;;;;;;2.83;0.85;;;14.70;99.90;;;;;;5037929;28;20025;-71
2021/10/06 08:49:25;;;;;;;0.10;0.10;;;14.80;99.90;;;;;;5038641;28;20483;-69
2021/10/06 08:51:50;;;;;;;0.20;0.20;;;14.90;99.90;;;;;;5022829;28;20041;-70
2021/10/06 08:54:17;;;;;;;0.00;0.00;;;14.90;99.90;;;;;;5038561;28;20438;-70
2021/10/06 08:56:51;;;;;;;0.13;0.13;;;15.00;99.90;;;;;;5027640;28;20061;-70
2021/10/06 08:59:17;;;;;;;0.08;0.08;;;15.00;99.90;;;;;;5038837;28;20052;-70
2021/10/06 09:01:44;;;;;;;0.20;0.10;;;15.00;99.90;;;;;;5044575;28;20029;-70
2021/10/06 09:04:10;;;;;;;0.10;0.10;;;15.00;99.90;;;;;;5039343;28;20029;-70
2021/10/06 09:06:44;;;;;;;1.00;0.63;;;15.00;99.90;;;;;;5027158;28;20053;-70
2021/10/06 09:09:12;;;;;;;5.47;1.38;;;15.10;99.90;;;;;;5037268;28;20527;-76
2021/10/06 09:11:38;;;;;;;0.00;0.00;;;15.10;99.90;;;;;;5030471;28;20116;-76
2021/10/06 09:14:06;;;;;;;0.00;0.00;;;15.20;99.90;;;;;;5027051;28;20491;-76
2021/10/06 09:16:33;;;;;;;0.00;0.00;;;15.20;99.90;;;;;;5027703;28;20553;-76
2021/10/06 09:18:58;;;;;;;0.43;0.43;;;15.30;99.90;;;;;;5028624;28;20570;-76
2021/10/06 09:21:24;;;;;;;0.00;0.00;;;15.30;99.90;;;;;;5027573;28;20018;-76
2021/10/06 09:23:49;;;;;;;0.10;0.10;;;15.30;99.90;;;;;;5023778;28;20037;-76
2021/10/06 09:26:16;;;;;;;0.00;0.00;;;15.40;99.90;;;;;;5025823;28;20385;-76
2021/10/06 09:28:46;;;;;;;0.10;0.10;;;15.40;99.90;;;;;;5031508;28;20033;-76
2021/10/06 09:31:13;;;;;;;0.45;0.45;;;15.40;99.90;;;;;;5035132;28;20025;-76
2021/10/06 09:33:50;;;;;;;0.10;0.10;;;15.40;99.90;;;;;;5034872;28;20268;-75
2021/10/06 09:36:35;;;;;;;0.15;0.10;;;15.40;99.90;;;;;;5027107;28;20030;-76
2021/10/06 09:39:19;;;;;;;0.22;0.22;;;15.50;99.90;;;;;;5042058;28;20021;-75
2021/10/06 09:41:46;;;;;;;0.43;0.30;;;15.60;99.90;;;;;;5030151;28;20025;-76
2021/10/06 09:44:16;;;;;;;0.17;0.17;;;15.60;99.90;;;;;;5030572;28;20064;-75
2021/10/06 09:46:52;;;;;;;0.10;0.10;;;15.70;99.90;;;;;;5031420;28;20391;-75
2021/10/06 09:49:30;;;;;;;0.10;0.10;;;15.80;99.90;;;;;;5041314;28;20023;-75
2021/10/06 09:52:24;;;;;;;0.30;0.30;;;15.90;99.90;;;;;;5037840;28;20037;-75
2021/10/06 09:54:55;;;;;;;0.10;0.10;;;16.00;99.90;;;;;;5034247;28;20041;-75
2021/10/06 09:57:31;;;;;;;0.05;0.05;;;16.10;99.90;;;;;;5035485;28;20036;-75
2021/10/06 10:00:10;;;;;;;0.25;0.25;;;16.20;99.90;;;;;;5045558;28;20037;-75
2021/10/06 10:02:48;;;;;;;0.20;0.20;;;16.30;99.10;;;;;;5040970;28;20040;-76
2021/10/06 10:05:15;;;;;;;0.00;0.00;;;16.40;99.00;;;;;;5036669;28;20032;-76
2021/10/06 10:07:42;;;;;;;2.03;0.90;;;16.60;99.80;;;;;;5044867;28;20025;-76
2021/10/06 10:10:10;;;;;;;0.00;0.00;;;16.80;97.80;;;;;;5045704;28;20028;-76
2021/10/06 10:12:36;;;;;;;0.15;0.15;;;17.00;96.90;;;;;;5042220;28;20167;-76
2021/10/06 10:15:03;;;;;;;0.00;0.00;;;17.10;95.00;;;;;;5031156;28;20108;-77
2021/10/06 10:17:29;;;;;;;0.10;0.10;;;17.30;94.20;;;;;;5025193;28;20022;-77
2021/10/06 10:19:57;;;;;;;0.00;0.00;;;17.40;93.70;;;;;;5028481;28;20073;-77
2021/10/06 10:22:26;;;;;;;0.73;0.38;;;17.50;94.20;;;;;;5027833;28;20415;-78
2021/10/06 10:24:52;;;;;;;0.00;0.00;;;17.50;93.40;;;;;;5032949;28;20025;-77
2021/10/06 10:27:23;;;;;;;26.50;0.93;;;17.50;92.60;;;;;;5032390;28;20160;-78
2021/10/06 10:29:57;;;;;;;0.00;0.00;;;17.40;92.00;;;;;;5031181;28;20108;-78
2021/10/06 10:32:29;;;;;;;0.03;0.03;;;17.40;92.20;;;;;;5034937;28;20029;-77
2021/10/06 10:35:01;;;;;;;0.00;0.00;;;17.40;91.40;;;;;;5029809;28;20115;-77
2021/10/06 10:37:45;;;;;;;;;;;17.30;91.70;;;;;;5034209;28;20082;-76
2021/10/06 10:40:32;;;;;;;3.53;0.45;;;17.30;92.70;;;;;;5032103;28;19999;-76
2021/10/06 10:43:03;;;;;;;0.08;0.08;;;17.30;90.60;;;;;;5027078;28;20431;-77
2021/10/06 10:45:53;;;;;;;0.10;0.10;;;17.30;91.10;;;;;;5023568;28;20511;-77
2021/10/06 10:48:24;;;;;;;1.60;0.55;;;17.40;91.10;;;;;;5026719;28;20075;-77
2021/10/06 10:50:49;;;;;;;0.00;0.00;;;17.50;90.10;;;;;;5023484;28;20030;-77
2021/10/06 10:53:17;;;;;;;0.00;0.00;;;17.70;90.50;;;;;;5032115;28;20468;-77
2021/10/06 10:55:52;;;;;;;0.00;0.00;;;17.90;89.40;;;;;;5033481;28;20554;-77
2021/10/06 10:58:35;;;;;;;0.30;0.30;;;17.70;87.30;;;;;;5047130;28;20037;-77
2021/10/06 11:01:05;;;;;;;0.10;0.10;;;17.50;89.20;;;;;;5041002;28;20072;-77
2021/10/06 11:03:31;;;;;;;0.00;0.00;;;17.70;88.90;;;;;;5041473;28;20086;-77
2021/10/06 11:05:57;;;;;;;0.20;0.20;;;18.10;87.40;;;;;;5032968;28;20076;-77
2021/10/06 11:08:30;;;;;;;0.10;0.10;;;18.40;86.50;;;;;;5031148;28;20033;-77
2021/10/06 11:11:19;;;;;;;0.75;0.68;;;18.50;85.00;;;;;;5028785;28;20498;-77
2021/10/06 11:13:46;;;;;;;0.20;0.20;;;18.30;89.30;;;;;;5038335;28;20056;-77
2021/10/06 11:16:13;;;;;;;1.38;0.75;;;18.30;87.40;;;;;;5042172;28;20021;-77
2021/10/06 11:18:44;;;;;;;0.10;0.10;;;18.50;85.50;;;;;;5022178;28;20030;-77
2021/10/06 11:21:11;;;;;;;0.00;0.00;;;18.50;84.70;;;;;;5032525;28;20495;-77
2021/10/06 11:23:39;;;;;;;0.50;0.50;;;18.60;85.10;;;;;;5030446;28;20037;-77
2021/10/06 11:26:10;;;;;;;0.00;0.00;;;18.80;81.60;;;;;;5034939;28;20411;-77
2021/10/06 11:28:38;;;;;;;0.10;0.10;;;19.20;81.50;;;;;;5033967;28;20494;-77
2021/10/06 11:31:03;;;;;;;0.03;0.03;;;19.40;80.90;;;;;;5028603;28;20072;-78
2021/10/06 11:33:30;;;;;;;0.52;0.52;;;19.30;77.90;;;;;;5029674;28;20028;-77
2021/10/06 11:36:17;;;;;;;0.00;0.00;;;19.10;78.10;;;;;;5028412;28;20033;-77
2021/10/06 11:38:49;;;;;;;0.75;0.30;;;18.80;78.60;;;;;;5025961;28;20040;-77
2021/10/06 11:41:16;;;;;;;0.10;0.10;;;18.60;80.50;;;;;;5025042;28;20112;-77
2021/10/06 11:43:53;;;;;;;0.43;0.43;;;18.50;79.90;;;;;;5026640;28;20029;-77
2021/10/06 11:46:22;;;;;;;0.00;0.00;;;18.40;80.70;;;;;;5032724;28;20060;-70
2021/10/06 11:48:54;;;;;;;0.10;0.10;;;18.40;83.10;;;;;;5033181;28;20501;-71
2021/10/06 11:51:20;;;;;;;0.10;0.10;;;18.30;80.20;;;;;;5025645;28;20025;-72
2021/10/06 11:53:49;;;;;;;0.08;0.08;;;18.20;81.50;;;;;;5030312;28;20087;-71
2021/10/06 11:56:26;;;;;;;0.00;0.00;;;18.10;80.30;;;;;;5043750;28;20033;-71
2021/10/06 11:58:52;;;;;;;0.00;0.00;;;17.90;80.60;;;;;;5038113;28;20135;-71
2021/10/06 12:01:18;;;;;;;0.10;0.10;;;17.70;81.60;;;;;;5031255;28;20156;-71
2021/10/06 12:03:43;;;;;;;0.10;0.10;;;17.70;81.30;;;;;;5027198;28;20120;-72
2021/10/06 12:06:11;;;;;;;0.00;0.00;;;17.70;82.10;;;;;;5039325;28;20025;-71
2021/10/06 12:08:37;;;;;;;0.00;0.00;;;17.80;82.60;;;;;;5036819;28;20025;-71
2021/10/06 12:11:04;;;;;;;0.00;0.00;;;17.90;81.10;;;;;;5028421;28;20036;-71
2021/10/06 12:13:38;;;;;;;0.90;0.38;;;18.00;80.60;;;;;;5035856;28;20033;-71
2021/10/06 12:16:22;;;;;;;0.10;0.10;;;18.10;80.70;;;;;;5040276;28;20083;-71
2021/10/06 12:19:02;;;;;;;0.08;0.08;;;18.10;82.80;;;;;;5039014;28;21882;-72
2021/10/06 12:21:30;;;;;;;0.15;0.15;;;18.20;80.70;;;;;;5025021;28;20033;-71
2021/10/06 12:24:13;;;;;;;0.00;0.00;;;18.20;81.90;;;;;;5028194;28;20029;-71
2021/10/06 12:26:40;;;;;;;0.10;0.10;;;18.30;83.50;;;;;;5026790;28;20037;-71
2021/10/06 12:29:06;;;;;;;0.10;0.10;;;18.40;82.80;;;;;;5025347;28;20503;-71
2021/10/06 12:31:34;;;;;;;0.28;0.28;;;18.50;81.40;;;;;;5032390;28;20392;-71
2021/10/06 12:34:09;;;;;;;0.10;0.10;;;18.60;81.10;;;;;;5026312;28;20469;-71
2021/10/06 12:36:36;;;;;;;0.65;0.25;;;18.60;79.10;;;;;;5037644;28;20047;-72
2021/10/06 12:39:10;;;;;;;0.00;0.00;;;18.50;77.50;;;;;;5031897;28;20488;-71
2021/10/06 12:41:38;;;;;;;0.20;0.20;;;18.30;77.70;;;;;;5032629;28;20473;-71
2021/10/06 12:44:18;;;;;;;0.10;0.10;;;18.20;78.60;;;;;;5042616;28;20028;-71
2021/10/06 12:46:43;;;;;;;0.38;0.38;;;18.20;80.90;;;;;;5038527;28;20533;-71
2021/10/06 12:49:13;;;;;;;0.30;0.20;;;18.10;79.20;;;;;;5036755;28;20033;-72